sensor_id;sensor_type;location;lat;lon;timestamp;temperature;humidity
71304;DHT22;59091;47.446;19.148;2022-12-19T00:01:56;-0.87;82.90
71304;DHT22;59091;47.446;19.148;2022-12-19T00:04:21;-1.02;83.40
71304;DHT22;59091;47.446;19.148;2022-12-19T00:06:46;-1.04;83.75
71304;DHT22;59091;47.446;19.148;2022-12-19T00:09:12;-1.19;84.60
71304;DHT22;59091;47.446;19.148;2022-12-19T00:11:38;-1.07;83.95
71304;DHT22;59091;47.446;19.148;2022-12-19T00:14:04;-0.98;83.67
71304;DHT22;59091;47.446;19.148;2022-12-19T00:16:30;-1.15;84.26
71304;DHT22;59091;47.446;19.148;2022-12-19T00:18:57;-1.24;84.87
71304;DHT22;59091;47.446;19.148;2022-12-19T00:21:26;-1.32;85.13
71304;DHT22;59091;47.446;19.148;2022-12-19T00:23:52;-1.24;85.24
71304;DHT22;59091;47.446;19.148;2022-12-19T00:26:31;-1.13;84.52
71304;DHT22;59091;47.446;19.148;2022-12-19T00:28:59;-0.97;84.05
71304;DHT22;59091;47.446;19.148;2022-12-19T00:31:28;-1.09;84.97
71304;DHT22;59091;47.446;19.148;2022-12-19T00:33:54;-0.88;84.19
71304;DHT22;59091;47.446;19.148;2022-12-19T00:36:22;-1.27;85.10
71304;DHT22;59091;47.446;19.148;2022-12-19T00:38:48;-1.15;85.41
71304;DHT22;59091;47.446;19.148;2022-12-19T00:41:22;-1.00;84.74
71304;DHT22;59091;47.446;19.148;2022-12-19T00:43:57;-1.02;84.53
71304;DHT22;59091;47.446;19.148;2022-12-19T00:46:23;-0.81;84.18
71304;DHT22;59091;47.446;19.148;2022-12-19T00:48:49;-0.74;83.69
71304;DHT22;59091;47.446;19.148;2022-12-19T00:51:17;-0.68;83.58
71304;DHT22;59091;47.446;19.148;2022-12-19T00:53:44;-0.66;83.48
71304;DHT22;59091;47.446;19.148;2022-12-19T00:56:13;-0.73;83.68
71304;DHT22;59091;47.446;19.148;2022-12-19T00:58:39;-0.71;83.53
71304;DHT22;59091;47.446;19.148;2022-12-19T01:01:30;-0.76;83.91
71304;DHT22;59091;47.446;19.148;2022-12-19T01:03:57;-0.88;84.67
71304;DHT22;59091;47.446;19.148;2022-12-19T01:06:22;-0.87;84.42
71304;DHT22;59091;47.446;19.148;2022-12-19T01:08:48;-0.94;84.52
71304;DHT22;59091;47.446;19.148;2022-12-19T01:11:13;-0.85;84.56
71304;DHT22;59091;47.446;19.148;2022-12-19T01:13:39;-0.80;84.34
71304;DHT22;59091;47.446;19.148;2022-12-19T01:16:10;-0.76;84.13
71304;DHT22;59091;47.446;19.148;2022-12-19T01:18:36;-0.66;83.56
71304;DHT22;59091;47.446;19.148;2022-12-19T01:21:04;-0.71;83.80
71304;DHT22;59091;47.446;19.148;2022-12-19T01:23:30;-0.70;83.88
71304;DHT22;59091;47.446;19.148;2022-12-19T01:25:56;-0.77;84.05
71304;DHT22;59091;47.446;19.148;2022-12-19T01:28:22;-0.74;83.97
71304;DHT22;59091;47.446;19.148;2022-12-19T01:30:48;-0.76;84.07
71304;DHT22;59091;47.446;19.148;2022-12-19T01:33:14;-0.74;84.37
71304;DHT22;59091;47.446;19.148;2022-12-19T01:35:41;-0.60;83.73
71304;DHT22;59091;47.446;19.148;2022-12-19T01:38:12;-0.60;83.34
71304;DHT22;59091;47.446;19.148;2022-12-19T01:40:37;-0.56;83.36
71304;DHT22;59091;47.446;19.148;2022-12-19T01:43:03;-0.67;83.54
71304;DHT22;59091;47.446;19.148;2022-12-19T01:45:30;-0.54;82.91
71304;DHT22;59091;47.446;19.148;2022-12-19T01:48:13;-0.63;82.67
71304;DHT22;59091;47.446;19.148;2022-12-19T01:53:15;-0.70;83.35
71304;DHT22;59091;47.446;19.148;2022-12-19T01:55:42;-0.76;83.72
71304;DHT22;59091;47.446;19.148;2022-12-19T01:58:09;-0.63;83.20
71304;DHT22;59091;47.446;19.148;2022-12-19T02:00:35;-0.61;83.11
71304;DHT22;59091;47.446;19.148;2022-12-19T02:03:09;-0.77;82.93
71304;DHT22;59091;47.446;19.148;2022-12-19T02:05:36;-0.76;83.55
71304;DHT22;59091;47.446;19.148;2022-12-19T02:08:02;-0.60;82.97
71304;DHT22;59091;47.446;19.148;2022-12-19T02:10:28;-0.57;82.70
71304;DHT22;59091;47.446;19.148;2022-12-19T02:12:54;-0.54;82.71
71304;DHT22;59091;47.446;19.148;2022-12-19T02:15:20;-0.46;82.26
71304;DHT22;59091;47.446;19.148;2022-12-19T02:17:52;-0.39;81.99
71304;DHT22;59091;47.446;19.148;2022-12-19T02:23:35;-0.39;81.28
71304;DHT22;59091;47.446;19.148;2022-12-19T02:31:57;-0.37;81.10
71304;DHT22;59091;47.446;19.148;2022-12-19T02:34:55;-0.30;80.86
71304;DHT22;59091;47.446;19.148;2022-12-19T02:37:32;-0.23;80.95
71304;DHT22;59091;47.446;19.148;2022-12-19T02:42:34;-0.10;80.70
71304;DHT22;59091;47.446;19.148;2022-12-19T02:45:00;-0.06;80.56
71304;DHT22;59091;47.446;19.148;2022-12-19T02:47:27;-0.01;80.49
71304;DHT22;59091;47.446;19.148;2022-12-19T02:49:54;0.01;80.49
71304;DHT22;59091;47.446;19.148;2022-12-19T02:54:48;0.11;80.16
71304;DHT22;59091;47.446;19.148;2022-12-19T02:57:37;0.14;80.14
71304;DHT22;59091;47.446;19.148;2022-12-19T03:05:15;0.25;79.72
71304;DHT22;59091;47.446;19.148;2022-12-19T03:07:54;0.23;79.56
71304;DHT22;59091;47.446;19.148;2022-12-19T03:13:07;0.29;79.66
71304;DHT22;59091;47.446;19.148;2022-12-19T03:15:34;0.33;79.72
71304;DHT22;59091;47.446;19.148;2022-12-19T03:18:00;0.39;79.68
71304;DHT22;59091;47.446;19.148;2022-12-19T03:20:44;0.38;79.35
71304;DHT22;59091;47.446;19.148;2022-12-19T03:23:12;0.41;79.51
71304;DHT22;59091;47.446;19.148;2022-12-19T03:25:39;0.41;79.51
71304;DHT22;59091;47.446;19.148;2022-12-19T03:28:11;0.41;79.41
71304;DHT22;59091;47.446;19.148;2022-12-19T03:30:40;0.38;79.89
71304;DHT22;59091;47.446;19.148;2022-12-19T03:33:07;0.19;80.57
71304;DHT22;59091;47.446;19.148;2022-12-19T03:35:34;0.19;80.85
71304;DHT22;59091;47.446;19.148;2022-12-19T03:38:03;0.25;80.78
71304;DHT22;59091;47.446;19.148;2022-12-19T03:40:29;0.32;80.46
71304;DHT22;59091;47.446;19.148;2022-12-19T03:43:00;0.26;80.49
71304;DHT22;59091;47.446;19.148;2022-12-19T03:48:12;0.16;83.61
71304;DHT22;59091;47.446;19.148;2022-12-19T03:51:02;0.19;81.56
71304;DHT22;59091;47.446;19.148;2022-12-19T03:58:55;0.18;80.83
71304;DHT22;59091;47.446;19.148;2022-12-19T04:01:23;0.35;80.52
71304;DHT22;59091;47.446;19.148;2022-12-19T04:03:50;0.32;80.48
71304;DHT22;59091;47.446;19.148;2022-12-19T04:06:16;0.39;80.28
71304;DHT22;59091;47.446;19.148;2022-12-19T04:08:42;0.43;80.09
71304;DHT22;59091;47.446;19.148;2022-12-19T04:11:12;0.43;79.99
71304;DHT22;59091;47.446;19.148;2022-12-19T04:13:47;0.48;79.99
71304;DHT22;59091;47.446;19.148;2022-12-19T04:16:23;0.32;80.25
71304;DHT22;59091;47.446;19.148;2022-12-19T04:18:58;0.42;80.03
71304;DHT22;59091;47.446;19.148;2022-12-19T04:21:34;0.46;79.90
71304;DHT22;59091;47.446;19.148;2022-12-19T04:24:08;0.53;79.75
71304;DHT22;59091;47.446;19.148;2022-12-19T04:26:36;0.50;80.01
71304;DHT22;59091;47.446;19.148;2022-12-19T04:29:05;0.53;79.90
71304;DHT22;59091;47.446;19.148;2022-12-19T04:31:31;0.59;79.82
71304;DHT22;59091;47.446;19.148;2022-12-19T04:33:57;0.63;79.71
71304;DHT22;59091;47.446;19.148;2022-12-19T04:36:24;0.67;79.47
71304;DHT22;59091;47.446;19.148;2022-12-19T04:38:49;0.77;79.45
71304;DHT22;59091;47.446;19.148;2022-12-19T04:41:15;0.74;79.49
71304;DHT22;59091;47.446;19.148;2022-12-19T04:43:40;0.76;79.52
71304;DHT22;59091;47.446;19.148;2022-12-19T04:46:05;0.74;79.54
71304;DHT22;59091;47.446;19.148;2022-12-19T04:48:34;0.79;79.48
71304;DHT22;59091;47.446;19.148;2022-12-19T04:50:59;0.83;79.41
71304;DHT22;59091;47.446;19.148;2022-12-19T04:53:25;0.76;79.56
71304;DHT22;59091;47.446;19.148;2022-12-19T04:55:50;0.83;79.60
71304;DHT22;59091;47.446;19.148;2022-12-19T04:58:15;0.87;79.45
71304;DHT22;59091;47.446;19.148;2022-12-19T05:00:41;0.94;79.36
71304;DHT22;59091;47.446;19.148;2022-12-19T05:03:07;0.93;79.34
71304;DHT22;59091;47.446;19.148;2022-12-19T05:05:32;0.98;79.20
71304;DHT22;59091;47.446;19.148;2022-12-19T05:07:58;1.01;79.11
71304;DHT22;59091;47.446;19.148;2022-12-19T05:10:23;1.05;78.98
71304;DHT22;59091;47.446;19.148;2022-12-19T05:12:49;1.08;79.03
71304;DHT22;59091;47.446;19.148;2022-12-19T05:15:15;1.08;78.95
71304;DHT22;59091;47.446;19.148;2022-12-19T05:17:41;1.15;78.96
71304;DHT22;59091;47.446;19.148;2022-12-19T05:20:07;1.13;78.98
71304;DHT22;59091;47.446;19.148;2022-12-19T05:22:33;1.15;78.96
71304;DHT22;59091;47.446;19.148;2022-12-19T05:24:58;1.14;78.94
71304;DHT22;59091;47.446;19.148;2022-12-19T05:27:24;1.17;78.97
71304;DHT22;59091;47.446;19.148;2022-12-19T05:29:49;1.31;84.28
71304;DHT22;59091;47.446;19.148;2022-12-19T05:32:15;1.89;87.98
71304;DHT22;59091;47.446;19.148;2022-12-19T05:34:40;1.89;84.95
71304;DHT22;59091;47.446;19.148;2022-12-19T05:37:06;1.75;82.03
71304;DHT22;59091;47.446;19.148;2022-12-19T05:39:31;1.62;79.62
71304;DHT22;59091;47.446;19.148;2022-12-19T05:41:56;1.45;79.09
71304;DHT22;59091;47.446;19.148;2022-12-19T05:44:22;1.38;79.04
71304;DHT22;59091;47.446;19.148;2022-12-19T05:46:47;1.35;79.61
71304;DHT22;59091;47.446;19.148;2022-12-19T05:49:15;1.17;82.66
71304;DHT22;59091;47.446;19.148;2022-12-19T05:51:41;1.17;80.98
71304;DHT22;59091;47.446;19.148;2022-12-19T05:54:06;1.18;80.49
71304;DHT22;59091;47.446;19.148;2022-12-19T05:56:31;1.07;80.57
71304;DHT22;59091;47.446;19.148;2022-12-19T05:58:57;1.27;81.90
71304;DHT22;59091;47.446;19.148;2022-12-19T06:01:24;1.39;82.37
71304;DHT22;59091;47.446;19.148;2022-12-19T06:03:51;1.48;82.66
71304;DHT22;59091;47.446;19.148;2022-12-19T06:06:20;2.10;88.71
71304;DHT22;59091;47.446;19.148;2022-12-19T06:08:46;1.77;82.88
71304;DHT22;59091;47.446;19.148;2022-12-19T06:11:12;1.68;81.74
71304;DHT22;59091;47.446;19.148;2022-12-19T06:13:39;1.49;80.65
71304;DHT22;59091;47.446;19.148;2022-12-19T06:16:12;1.42;80.14
71304;DHT22;59091;47.446;19.148;2022-12-19T06:18:39;1.18;80.71
71304;DHT22;59091;47.446;19.148;2022-12-19T06:21:08;1.20;80.75
71304;DHT22;59091;47.446;19.148;2022-12-19T06:23:35;1.21;80.75
71304;DHT22;59091;47.446;19.148;2022-12-19T06:26:02;1.11;81.44
71304;DHT22;59091;47.446;19.148;2022-12-19T06:28:29;1.08;81.42
71304;DHT22;59091;47.446;19.148;2022-12-19T06:30:55;1.05;81.43
71304;DHT22;59091;47.446;19.148;2022-12-19T06:33:21;0.95;81.85
71304;DHT22;59091;47.446;19.148;2022-12-19T06:35:46;0.84;82.18
71304;DHT22;59091;47.446;19.148;2022-12-19T06:38:12;0.70;82.31
71304;DHT22;59091;47.446;19.148;2022-12-19T06:40:43;0.74;82.65
71304;DHT22;59091;47.446;19.148;2022-12-19T06:43:27;0.77;82.85
71304;DHT22;59091;47.446;19.148;2022-12-19T06:45:55;0.72;82.83
71304;DHT22;59091;47.446;19.148;2022-12-19T06:48:21;0.87;82.62
71304;DHT22;59091;47.446;19.148;2022-12-19T06:50:46;0.70;82.66
71304;DHT22;59091;47.446;19.148;2022-12-19T06:53:11;0.79;82.72
71304;DHT22;59091;47.446;19.148;2022-12-19T06:55:37;0.80;82.97
71304;DHT22;59091;47.446;19.148;2022-12-19T06:58:03;0.48;83.78
71304;DHT22;59091;47.446;19.148;2022-12-19T07:00:28;0.63;83.49
71304;DHT22;59091;47.446;19.148;2022-12-19T07:02:54;0.52;83.48
71304;DHT22;59091;47.446;19.148;2022-12-19T07:05:20;0.59;83.75
71304;DHT22;59091;47.446;19.148;2022-12-19T07:07:46;0.72;83.07
71304;DHT22;59091;47.446;19.148;2022-12-19T07:10:11;0.70;81.93
71304;DHT22;59091;47.446;19.148;2022-12-19T07:12:36;0.84;81.29
71304;DHT22;59091;47.446;19.148;2022-12-19T07:15:02;0.64;81.62
71304;DHT22;59091;47.446;19.148;2022-12-19T07:17:28;0.64;81.45
71304;DHT22;59091;47.446;19.148;2022-12-19T07:19:55;0.79;81.20
71304;DHT22;59091;47.446;19.148;2022-12-19T07:22:22;0.74;81.11
71304;DHT22;59091;47.446;19.148;2022-12-19T07:24:48;0.77;80.83
71304;DHT22;59091;47.446;19.148;2022-12-19T07:27:14;0.81;80.94
71304;DHT22;59091;47.446;19.148;2022-12-19T07:29:39;0.77;81.40
71304;DHT22;59091;47.446;19.148;2022-12-19T07:32:05;0.86;80.96
71304;DHT22;59091;47.446;19.148;2022-12-19T07:34:30;0.54;81.59
71304;DHT22;59091;47.446;19.148;2022-12-19T07:36:56;0.45;81.85
71304;DHT22;59091;47.446;19.148;2022-12-19T07:39:21;0.62;81.57
71304;DHT22;59091;47.446;19.148;2022-12-19T07:41:46;0.77;81.11
71304;DHT22;59091;47.446;19.148;2022-12-19T07:44:12;0.87;80.29
71304;DHT22;59091;47.446;19.148;2022-12-19T07:46:40;1.04;79.87
71304;DHT22;59091;47.446;19.148;2022-12-19T07:49:05;1.13;79.35
71304;DHT22;59091;47.446;19.148;2022-12-19T07:51:31;1.03;79.28
71304;DHT22;59091;47.446;19.148;2022-12-19T07:53:56;0.93;78.95
71304;DHT22;59091;47.446;19.148;2022-12-19T07:56:22;0.87;78.92
71304;DHT22;59091;47.446;19.148;2022-12-19T07:58:47;0.90;79.46
71304;DHT22;59091;47.446;19.148;2022-12-19T08:01:13;0.77;79.45
71304;DHT22;59091;47.446;19.148;2022-12-19T08:03:38;0.97;78.77
71304;DHT22;59091;47.446;19.148;2022-12-19T08:06:05;0.87;78.45
71304;DHT22;59091;47.446;19.148;2022-12-19T08:08:31;0.93;77.42
71304;DHT22;59091;47.446;19.148;2022-12-19T08:11:08;0.59;76.74
71304;DHT22;59091;47.446;19.148;2022-12-19T08:13:34;0.73;76.30
71304;DHT22;59091;47.446;19.148;2022-12-19T08:16:00;0.72;74.74
71304;DHT22;59091;47.446;19.148;2022-12-19T08:18:25;0.67;74.79
71304;DHT22;59091;47.446;19.148;2022-12-19T08:20:51;0.52;74.30
71304;DHT22;59091;47.446;19.148;2022-12-19T08:23:16;0.52;74.08
71304;DHT22;59091;47.446;19.148;2022-12-19T08:25:41;0.46;73.90
71304;DHT22;59091;47.446;19.148;2022-12-19T08:28:07;0.15;74.54
71304;DHT22;59091;47.446;19.148;2022-12-19T08:30:32;0.15;74.89
71304;DHT22;59091;47.446;19.148;2022-12-19T08:32:57;0.33;74.71
71304;DHT22;59091;47.446;19.148;2022-12-19T08:35:23;0.28;74.48
71304;DHT22;59091;47.446;19.148;2022-12-19T08:37:48;0.11;74.41
71304;DHT22;59091;47.446;19.148;2022-12-19T08:40:14;0.30;74.51
71304;DHT22;59091;47.446;19.148;2022-12-19T08:42:39;0.41;74.20
71304;DHT22;59091;47.446;19.148;2022-12-19T08:45:05;0.56;74.18
71304;DHT22;59091;47.446;19.148;2022-12-19T08:47:30;0.33;74.28
71304;DHT22;59091;47.446;19.148;2022-12-19T08:49:56;0.41;74.55
71304;DHT22;59091;47.446;19.148;2022-12-19T08:52:21;0.53;73.97
71304;DHT22;59091;47.446;19.148;2022-12-19T08:54:46;0.52;73.57
71304;DHT22;59091;47.446;19.148;2022-12-19T08:57:12;0.50;73.55
71304;DHT22;59091;47.446;19.148;2022-12-19T08:59:37;0.49;73.62
71304;DHT22;59091;47.446;19.148;2022-12-19T09:02:03;0.53;73.91
71304;DHT22;59091;47.446;19.148;2022-12-19T09:04:29;0.48;74.01
71304;DHT22;59091;47.446;19.148;2022-12-19T09:06:55;0.32;74.25
71304;DHT22;59091;47.446;19.148;2022-12-19T09:09:20;0.36;74.73
71304;DHT22;59091;47.446;19.148;2022-12-19T09:11:45;0.59;73.81
71304;DHT22;59091;47.446;19.148;2022-12-19T09:14:11;0.66;73.80
71304;DHT22;59091;47.446;19.148;2022-12-19T09:16:36;0.64;73.26
71304;DHT22;59091;47.446;19.148;2022-12-19T09:19:02;0.66;73.40
71304;DHT22;59091;47.446;19.148;2022-12-19T09:21:28;0.64;73.50
71304;DHT22;59091;47.446;19.148;2022-12-19T09:23:55;0.64;73.50
71304;DHT22;59091;47.446;19.148;2022-12-19T09:26:22;0.63;73.70
71304;DHT22;59091;47.446;19.148;2022-12-19T09:28:48;0.76;73.23
71304;DHT22;59091;47.446;19.148;2022-12-19T09:31:22;0.87;72.71
71304;DHT22;59091;47.446;19.148;2022-12-19T09:33:48;0.69;72.40
71304;DHT22;59091;47.446;19.148;2022-12-19T09:36:17;0.87;72.01
71304;DHT22;59091;47.446;19.148;2022-12-19T09:38:43;1.03;72.86
71304;DHT22;59091;47.446;19.148;2022-12-19T09:46:53;1.07;71.72
71304;DHT22;59091;47.446;19.148;2022-12-19T09:49:41;1.07;72.17
71304;DHT22;59091;47.446;19.148;2022-12-19T09:52:22;1.15;72.23
71304;DHT22;59091;47.446;19.148;2022-12-19T09:55:10;1.20;71.04
71304;DHT22;59091;47.446;19.148;2022-12-19T10:00:21;1.30;70.63
71304;DHT22;59091;47.446;19.148;2022-12-19T10:02:55;1.36;70.52
71304;DHT22;59091;47.446;19.148;2022-12-19T10:05:27;1.42;69.81
71304;DHT22;59091;47.446;19.148;2022-12-19T10:07:55;1.46;70.12
71304;DHT22;59091;47.446;19.148;2022-12-19T10:10:29;1.49;70.10
71304;DHT22;59091;47.446;19.148;2022-12-19T10:26:18;1.54;70.57
71304;DHT22;59091;47.446;19.148;2022-12-19T10:28:57;1.75;80.35
71304;DHT22;59091;47.446;19.148;2022-12-19T10:36:45;1.72;69.67
71304;DHT22;59091;47.446;19.148;2022-12-19T10:41:45;1.66;69.68
71304;DHT22;59091;47.446;19.148;2022-12-19T10:44:15;1.59;69.56
71304;DHT22;59091;47.446;19.148;2022-12-19T10:49:15;1.73;69.01
71304;DHT22;59091;47.446;19.148;2022-12-19T10:51:51;1.75;68.64
71304;DHT22;59091;47.446;19.148;2022-12-19T10:54:18;1.79;68.96
71304;DHT22;59091;47.446;19.148;2022-12-19T10:56:43;2.00;68.48
71304;DHT22;59091;47.446;19.148;2022-12-19T10:59:16;2.02;68.37
71304;DHT22;59091;47.446;19.148;2022-12-19T11:01:42;1.89;68.63
71304;DHT22;59091;47.446;19.148;2022-12-19T11:04:30;1.99;68.66
71304;DHT22;59091;47.446;19.148;2022-12-19T11:07:04;2.00;69.17
71304;DHT22;59091;47.446;19.148;2022-12-19T11:14:31;2.11;68.07
71304;DHT22;59091;47.446;19.148;2022-12-19T11:16:57;2.21;68.25
71304;DHT22;59091;47.446;19.148;2022-12-19T11:21:51;2.11;68.04
71304;DHT22;59091;47.446;19.148;2022-12-19T11:24:22;2.07;68.26
71304;DHT22;59091;47.446;19.148;2022-12-19T11:26:50;2.18;68.70
71304;DHT22;59091;47.446;19.148;2022-12-19T11:31:59;2.14;67.95
71304;DHT22;59091;47.446;19.148;2022-12-19T11:34:28;2.24;67.86
71304;DHT22;59091;47.446;19.148;2022-12-19T11:37:02;2.20;67.73
71304;DHT22;59091;47.446;19.148;2022-12-19T11:42:36;2.27;67.97
71304;DHT22;59091;47.446;19.148;2022-12-19T11:45:14;2.31;67.29
71304;DHT22;59091;47.446;19.148;2022-12-19T11:47:46;2.21;67.63
71304;DHT22;59091;47.446;19.148;2022-12-19T11:50:17;2.27;67.63
71304;DHT22;59091;47.446;19.148;2022-12-19T11:55:39;2.02;68.07
71304;DHT22;59091;47.446;19.148;2022-12-19T11:58:09;2.11;68.25
71304;DHT22;59091;47.446;19.148;2022-12-19T12:00:35;2.16;68.19
71304;DHT22;59091;47.446;19.148;2022-12-19T12:05:50;2.03;68.55
71304;DHT22;59091;47.446;19.148;2022-12-19T12:08:54;1.92;67.93
71304;DHT22;59091;47.446;19.148;2022-12-19T12:14:32;2.11;68.09
71304;DHT22;59091;47.446;19.148;2022-12-19T12:17:09;2.14;67.88
71304;DHT22;59091;47.446;19.148;2022-12-19T12:30:53;1.83;68.26
71304;DHT22;59091;47.446;19.148;2022-12-19T12:33:44;1.92;69.07
71304;DHT22;59091;47.446;19.148;2022-12-19T12:36:52;1.75;68.87
71304;DHT22;59091;47.446;19.148;2022-12-19T12:44:49;1.41;70.59
71304;DHT22;59091;47.446;19.148;2022-12-19T12:47:20;1.62;69.95
71304;DHT22;59091;47.446;19.148;2022-12-19T12:52:22;1.62;69.66
71304;DHT22;59091;47.446;19.148;2022-12-19T12:54:50;1.79;69.21
71304;DHT22;59091;47.446;19.148;2022-12-19T12:57:36;1.56;69.45
71304;DHT22;59091;47.446;19.148;2022-12-19T13:05:40;1.60;69.06
71304;DHT22;59091;47.446;19.148;2022-12-19T13:08:37;1.38;70.59
71304;DHT22;59091;47.446;19.148;2022-12-19T13:11:08;1.65;69.75
71304;DHT22;59091;47.446;19.148;2022-12-19T13:13:50;1.46;69.55
71304;DHT22;59091;47.446;19.148;2022-12-19T13:19:22;1.86;69.12
71304;DHT22;59091;47.446;19.148;2022-12-19T13:24:39;1.60;70.06
71304;DHT22;59091;47.446;19.148;2022-12-19T13:30:13;1.52;70.15
71304;DHT22;59091;47.446;19.148;2022-12-19T13:37:43;1.87;69.52
71304;DHT22;59091;47.446;19.148;2022-12-19T13:40:14;1.72;69.70
71304;DHT22;59091;47.446;19.148;2022-12-19T13:42:51;1.87;69.32
71304;DHT22;59091;47.446;19.148;2022-12-19T13:45:39;1.89;69.29
71304;DHT22;59091;47.446;19.148;2022-12-19T13:48:13;1.62;69.63
71304;DHT22;59091;47.446;19.148;2022-12-19T13:50:40;1.60;70.29
71304;DHT22;59091;47.446;19.148;2022-12-19T13:53:27;1.58;69.77
71304;DHT22;59091;47.446;19.148;2022-12-19T13:55:56;1.68;70.01
71304;DHT22;59091;47.446;19.148;2022-12-19T13:58:26;1.72;70.21
71304;DHT22;59091;47.446;19.148;2022-12-19T14:00:54;1.70;70.05
71304;DHT22;59091;47.446;19.148;2022-12-19T14:03:30;1.75;69.92
71304;DHT22;59091;47.446;19.148;2022-12-19T14:06:08;1.69;70.25
71304;DHT22;59091;47.446;19.148;2022-12-19T14:08:34;1.65;70.03
71304;DHT22;59091;47.446;19.148;2022-12-19T14:11:01;1.49;70.39
71304;DHT22;59091;47.446;19.148;2022-12-19T14:13:26;1.45;70.87
71304;DHT22;59091;47.446;19.148;2022-12-19T14:16:15;1.62;70.54
71304;DHT22;59091;47.446;19.148;2022-12-19T14:18:47;1.70;69.97
71304;DHT22;59091;47.446;19.148;2022-12-19T14:21:17;1.68;70.06
71304;DHT22;59091;47.446;19.148;2022-12-19T14:23:43;1.72;72.82
71304;DHT22;59091;47.446;19.148;2022-12-19T14:26:21;1.56;70.33
71304;DHT22;59091;47.446;19.148;2022-12-19T14:28:54;1.51;73.11
71304;DHT22;59091;47.446;19.148;2022-12-19T14:31:22;1.62;71.08
71304;DHT22;59091;47.446;19.148;2022-12-19T14:33:49;1.68;70.81
71304;DHT22;59091;47.446;19.148;2022-12-19T14:36:25;1.63;70.34
71304;DHT22;59091;47.446;19.148;2022-12-19T14:38:51;1.55;70.88
71304;DHT22;59091;47.446;19.148;2022-12-19T14:41:35;1.34;71.08
71304;DHT22;59091;47.446;19.148;2022-12-19T14:44:44;1.18;72.12
71304;DHT22;59091;47.446;19.148;2022-12-19T14:47:22;1.25;72.08
71304;DHT22;59091;47.446;19.148;2022-12-19T14:49:48;1.27;72.21
71304;DHT22;59091;47.446;19.148;2022-12-19T14:57:48;1.30;72.17
71304;DHT22;59091;47.446;19.148;2022-12-19T15:00:25;1.21;72.36
71304;DHT22;59091;47.446;19.148;2022-12-19T15:02:51;1.36;72.05
71304;DHT22;59091;47.446;19.148;2022-12-19T15:05:18;1.46;71.66
71304;DHT22;59091;47.446;19.148;2022-12-19T15:07:46;1.45;71.50
71304;DHT22;59091;47.446;19.148;2022-12-19T15:10:24;1.39;71.40
71304;DHT22;59091;47.446;19.148;2022-12-19T15:13:02;1.39;71.48
71304;DHT22;59091;47.446;19.148;2022-12-19T15:18:22;1.25;72.18
71304;DHT22;59091;47.446;19.148;2022-12-19T15:20:48;1.11;72.74
71304;DHT22;59091;47.446;19.148;2022-12-19T15:23:15;1.24;72.42
71304;DHT22;59091;47.446;19.148;2022-12-19T15:25:40;1.14;72.84
71304;DHT22;59091;47.446;19.148;2022-12-19T15:28:19;0.93;73.21
71304;DHT22;59091;47.446;19.148;2022-12-19T15:30:50;0.98;73.16
71304;DHT22;59091;47.446;19.148;2022-12-19T15:33:17;0.95;73.56
71304;DHT22;59091;47.446;19.148;2022-12-19T15:35:42;0.97;73.51
71304;DHT22;59091;47.446;19.148;2022-12-19T15:38:09;0.98;73.57
71304;DHT22;59091;47.446;19.148;2022-12-19T15:40:36;0.95;73.32
71304;DHT22;59091;47.446;19.148;2022-12-19T15:43:02;0.98;74.27
71304;DHT22;59091;47.446;19.148;2022-12-19T15:45:29;1.00;73.49
71304;DHT22;59091;47.446;19.148;2022-12-19T15:47:55;1.05;73.06
71304;DHT22;59091;47.446;19.148;2022-12-19T15:50:25;0.80;73.68
71304;DHT22;59091;47.446;19.148;2022-12-19T15:52:54;0.81;73.84
71304;DHT22;59091;47.446;19.148;2022-12-19T15:55:23;0.93;73.44
71304;DHT22;59091;47.446;19.148;2022-12-19T15:57:58;0.79;74.82
71304;DHT22;59091;47.446;19.148;2022-12-19T16:00:31;0.91;73.54
71304;DHT22;59091;47.446;19.148;2022-12-19T16:02:57;0.86;73.46
71304;DHT22;59091;47.446;19.148;2022-12-19T16:05:23;0.77;73.77
71304;DHT22;59091;47.446;19.148;2022-12-19T16:07:49;0.74;74.12
71304;DHT22;59091;47.446;19.148;2022-12-19T16:10:15;0.81;73.94
71304;DHT22;59091;47.446;19.148;2022-12-19T16:12:43;0.84;73.80
71304;DHT22;59091;47.446;19.148;2022-12-19T16:15:29;0.64;73.85
71304;DHT22;59091;47.446;19.148;2022-12-19T16:17:56;0.79;74.07
71304;DHT22;59091;47.446;19.148;2022-12-19T16:20:27;0.81;74.19
71304;DHT22;59091;47.446;19.148;2022-12-19T16:22:53;0.76;74.31
71304;DHT22;59091;47.446;19.148;2022-12-19T16:25:20;0.91;73.91
71304;DHT22;59091;47.446;19.148;2022-12-19T16:27:54;1.03;73.45
71304;DHT22;59091;47.446;19.148;2022-12-19T16:30:30;1.04;73.18
71304;DHT22;59091;47.446;19.148;2022-12-19T16:32:56;0.94;73.64
71304;DHT22;59091;47.446;19.148;2022-12-19T16:35:23;1.04;73.29
71304;DHT22;59091;47.446;19.148;2022-12-19T16:37:49;0.88;73.89
71304;DHT22;59091;47.446;19.148;2022-12-19T16:40:20;1.05;73.37
71304;DHT22;59091;47.446;19.148;2022-12-19T16:42:47;1.44;78.21
71304;DHT22;59091;47.446;19.148;2022-12-19T16:45:25;1.45;77.43
71304;DHT22;59091;47.446;19.148;2022-12-19T16:47:51;1.49;72.93
71304;DHT22;59091;47.446;19.148;2022-12-19T16:50:25;1.25;72.33
71304;DHT22;59091;47.446;19.148;2022-12-19T16:52:52;1.39;73.19
71304;DHT22;59091;47.446;19.148;2022-12-19T16:55:18;1.34;73.94
71304;DHT22;59091;47.446;19.148;2022-12-19T16:57:45;1.31;73.49
71304;DHT22;59091;47.446;19.148;2022-12-19T17:00:17;1.21;72.85
71304;DHT22;59091;47.446;19.148;2022-12-19T17:02:49;0.87;73.36
71304;DHT22;59091;47.446;19.148;2022-12-19T17:05:24;0.80;73.79
71304;DHT22;59091;47.446;19.148;2022-12-19T17:07:50;0.88;73.91
71304;DHT22;59091;47.446;19.148;2022-12-19T17:10:18;0.97;73.83
71304;DHT22;59091;47.446;19.148;2022-12-19T17:12:44;1.03;73.35
71304;DHT22;59091;47.446;19.148;2022-12-19T17:15:30;1.03;74.40
71304;DHT22;59091;47.446;19.148;2022-12-19T17:18:01;1.14;73.60
71304;DHT22;59091;47.446;19.148;2022-12-19T17:20:32;0.98;73.46
71304;DHT22;59091;47.446;19.148;2022-12-19T17:23:00;0.93;73.98
71304;DHT22;59091;47.446;19.148;2022-12-19T17:25:26;1.20;84.62
71304;DHT22;59091;47.446;19.148;2022-12-19T17:27:53;1.14;74.02
71304;DHT22;59091;47.446;19.148;2022-12-19T17:30:20;1.07;73.29
71304;DHT22;59091;47.446;19.148;2022-12-19T17:32:48;1.05;73.40
71304;DHT22;59091;47.446;19.148;2022-12-19T17:35:21;1.07;73.13
71304;DHT22;59091;47.446;19.148;2022-12-19T17:37:52;1.13;72.82
71304;DHT22;59091;47.446;19.148;2022-12-19T17:40:20;1.17;72.95
71304;DHT22;59091;47.446;19.148;2022-12-19T17:42:46;1.01;73.01
71304;DHT22;59091;47.446;19.148;2022-12-19T17:45:12;0.97;73.24
71304;DHT22;59091;47.446;19.148;2022-12-19T17:47:38;1.08;72.99
71304;DHT22;59091;47.446;19.148;2022-12-19T17:50:05;1.08;72.74
71304;DHT22;59091;47.446;19.148;2022-12-19T17:52:33;0.97;72.96
71304;DHT22;59091;47.446;19.148;2022-12-19T17:55:11;0.98;72.63